Airfield :
LOGIN :

Register | Disclaimer

   EN    FR    IT 

 










Legend :    VFR   Marginal VFR   IFR   Intensive IFR   Very Intensive IFR
Visi :
Ceiling :
>= 8 km
>= 3000ft
5 to 8 km
1000 to 3000 ft
1500m to 5 km
500 to 1000 ft
800 to 1500m
200 to 500 ft
< 800m
< 200 ft
Symbols :   Thunderstorms  Fog  Heavy snow  Heavy precipitations  Wind > 20 kt
SIGMETs :     Misc.  Thunderstorms  Icing  Turbulence  Mountain Waves  Volcanic Ashes







- Airport Elevation : 1079 ft


ETIK - Illesheim Air Base

CURRENT METAR :
  • 191056Z AUTO 25015G20KT 9999 OVC055 09/03 A3014 RMK AO2 SLP221 T00900030 $

EXPIRED METARs :
  • 190956Z AUTO 24013KT 9999 OVC055 09/02 A3012 RMK AO2 SLP212 T00850016 $
  • 190856Z AUTO 21008KT 9999 OVC055 07/01 A3011 RMK AO2 SLP212 T00690012 51008 $

TAF TAF ETIK
Valid from the 19 at 06:00 until the 20 at 12:00 UTC


190607Z 1906/2012 25006KT 9999 SKC QNH3007INS
BECMG 1911/1912 25010G20KT 8000 -RA BKN015 OVC025 620404 QNH3009INS
BECMG 1915/1916 26009KT 9999 NSW SCT015 QNH3011INS TX09/1914Z TN00/1906Z
No reported NOTAMs for that airfield.



MET'MAP, your aeronautical weather chart ! - Copyright ORBIFLY December 2007 - Disclaimer

ORBIFLY MET'MAP TEAM :

Programming & Development : Alexandra Zaïnal
Concept & Development : Baudouin d'Aumeries
Co-Development & Prog : Marc-Olivier Méhu
Technical & hardware support : Manuel Goepfert

Contact : metmap@orbifly.com




SOURCES & CREDITS :

   NOAA